sensor_id;sensor_type;location;lat;lon;timestamp;P1;durP1;ratioP1;P2;durP2;ratioP2
45762;SDS011;37512;52.408;13.356;2023-02-26T00:00:51;1.73;;;1.20;;
45762;SDS011;37512;52.408;13.356;2023-02-26T00:04:52;9.57;;;2.30;;
45762;SDS011;37512;52.408;13.356;2023-02-26T00:08:54;3.30;;;2.03;;
45762;SDS011;37512;52.408;13.356;2023-02-26T00:12:55;3.28;;;1.55;;
45762;SDS011;37512;52.408;13.356;2023-02-26T00:21:27;1.75;;;1.10;;
45762;SDS011;37512;52.408;13.356;2023-02-26T00:25:30;4.13;;;1.67;;
45762;SDS011;37512;52.408;13.356;2023-02-26T00:29:31;3.67;;;1.60;;
45762;SDS011;37512;52.408;13.356;2023-02-26T00:33:33;1.40;;;1.10;;
45762;SDS011;37512;52.408;13.356;2023-02-26T00:42:00;4.15;;;1.30;;
45762;SDS011;37512;52.408;13.356;2023-02-26T00:46:07;4.60;;;1.75;;
45762;SDS011;37512;52.408;13.356;2023-02-26T00:50:23;2.45;;;1.15;;
45762;SDS011;37512;52.408;13.356;2023-02-26T00:54:26;1.65;;;1.10;;
45762;SDS011;37512;52.408;13.356;2023-02-26T00:58:29;4.47;;;2.03;;
45762;SDS011;37512;52.408;13.356;2023-02-26T01:02:30;4.65;;;1.67;;
45762;SDS011;37512;52.408;13.356;2023-02-26T01:06:33;4.30;;;1.30;;
45762;SDS011;37512;52.408;13.356;2023-02-26T01:10:38;1.40;;;1.10;;
45762;SDS011;37512;52.408;13.356;2023-02-26T01:14:40;4.22;;;1.30;;
45762;SDS011;37512;52.408;13.356;2023-02-26T01:18:47;3.05;;;1.58;;
45762;SDS011;37512;52.408;13.356;2023-02-26T01:23:03;3.70;;;1.58;;
45762;SDS011;37512;52.408;13.356;2023-02-26T01:27:07;4.13;;;1.40;;
45762;SDS011;37512;52.408;13.356;2023-02-26T01:31:12;2.63;;;1.30;;
45762;SDS011;37512;52.408;13.356;2023-02-26T01:48:17;3.83;;;1.30;;
45762;SDS011;37512;52.408;13.356;2023-02-26T01:56:49;4.50;;;1.08;;
45762;SDS011;37512;52.408;13.356;2023-02-26T02:00:56;2.13;;;1.00;;
45762;SDS011;37512;52.408;13.356;2023-02-26T02:04:58;3.00;;;1.17;;
45762;SDS011;37512;52.408;13.356;2023-02-26T02:09:07;3.08;;;2.00;;
45762;SDS011;37512;52.408;13.356;2023-02-26T02:13:14;3.38;;;1.40;;
45762;SDS011;37512;52.408;13.356;2023-02-26T02:17:40;2.63;;;1.00;;
45762;SDS011;37512;52.408;13.356;2023-02-26T02:34:52;2.83;;;1.00;;
45762;SDS011;37512;52.408;13.356;2023-02-26T02:39:01;1.77;;;0.77;;
45762;SDS011;37512;52.408;13.356;2023-02-26T02:43:09;2.65;;;1.15;;
45762;SDS011;37512;52.408;13.356;2023-02-26T02:47:15;5.82;;;1.33;;
45762;SDS011;37512;52.408;13.356;2023-02-26T02:51:25;2.95;;;1.10;;
45762;SDS011;37512;52.408;13.356;2023-02-26T02:55:35;3.78;;;1.15;;
45762;SDS011;37512;52.408;13.356;2023-02-26T02:59:42;2.42;;;1.17;;
45762;SDS011;37512;52.408;13.356;2023-02-26T03:03:51;2.08;;;0.98;;
45762;SDS011;37512;52.408;13.356;2023-02-26T03:08:07;5.88;;;1.52;;
45762;SDS011;37512;52.408;13.356;2023-02-26T03:12:12;8.75;;;1.50;;
45762;SDS011;37512;52.408;13.356;2023-02-26T03:20:25;1.73;;;1.05;;
45762;SDS011;37512;52.408;13.356;2023-02-26T03:28:40;1.10;;;1.00;;
45762;SDS011;37512;52.408;13.356;2023-02-26T03:32:56;2.25;;;1.05;;
45762;SDS011;37512;52.408;13.356;2023-02-26T03:37:02;5.32;;;1.35;;
45762;SDS011;37512;52.408;13.356;2023-02-26T03:41:28;1.48;;;0.88;;
45762;SDS011;37512;52.408;13.356;2023-02-26T03:45:34;1.50;;;0.95;;
45762;SDS011;37512;52.408;13.356;2023-02-26T03:54:07;1.83;;;1.10;;
45762;SDS011;37512;52.408;13.356;2023-02-26T03:58:13;3.22;;;1.30;;
45762;SDS011;37512;52.408;13.356;2023-02-26T04:02:16;1.35;;;1.02;;
45762;SDS011;37512;52.408;13.356;2023-02-26T04:06:22;1.83;;;1.20;;
45762;SDS011;37512;52.408;13.356;2023-02-26T04:10:32;1.60;;;1.30;;
45762;SDS011;37512;52.408;13.356;2023-02-26T04:14:38;2.55;;;1.27;;
45762;SDS011;37512;52.408;13.356;2023-02-26T04:18:39;4.07;;;1.35;;
45762;SDS011;37512;52.408;13.356;2023-02-26T04:22:42;2.13;;;1.40;;
45762;SDS011;37512;52.408;13.356;2023-02-26T04:26:44;2.20;;;1.17;;
45762;SDS011;37512;52.408;13.356;2023-02-26T04:30:45;1.13;;;1.02;;
45762;SDS011;37512;52.408;13.356;2023-02-26T04:34:47;0.88;;;0.75;;
45762;SDS011;37512;52.408;13.356;2023-02-26T04:38:48;5.55;;;1.17;;
45762;SDS011;37512;52.408;13.356;2023-02-26T04:42:50;1.73;;;1.20;;
45762;SDS011;37512;52.408;13.356;2023-02-26T04:46:51;6.00;;;1.67;;
45762;SDS011;37512;52.408;13.356;2023-02-26T04:50:53;5.75;;;1.10;;
45762;SDS011;37512;52.408;13.356;2023-02-26T04:54:55;1.10;;;0.90;;
45762;SDS011;37512;52.408;13.356;2023-02-26T04:58:56;1.30;;;0.80;;
45762;SDS011;37512;52.408;13.356;2023-02-26T05:02:58;1.17;;;0.93;;
45762;SDS011;37512;52.408;13.356;2023-02-26T05:06:59;1.65;;;1.23;;
45762;SDS011;37512;52.408;13.356;2023-02-26T05:11:00;3.13;;;1.10;;
45762;SDS011;37512;52.408;13.356;2023-02-26T05:15:03;2.47;;;0.88;;
45762;SDS011;37512;52.408;13.356;2023-02-26T05:19:06;2.25;;;1.10;;
45762;SDS011;37512;52.408;13.356;2023-02-26T05:23:07;3.50;;;1.02;;
45762;SDS011;37512;52.408;13.356;2023-02-26T05:27:09;1.13;;;1.00;;
45762;SDS011;37512;52.408;13.356;2023-02-26T05:31:11;1.45;;;0.90;;
45762;SDS011;37512;52.408;13.356;2023-02-26T05:35:13;5.30;;;1.70;;
45762;SDS011;37512;52.408;13.356;2023-02-26T05:39:15;1.08;;;0.98;;
45762;SDS011;37512;52.408;13.356;2023-02-26T05:43:16;6.18;;;1.30;;
45762;SDS011;37512;52.408;13.356;2023-02-26T05:47:18;1.90;;;1.15;;
45762;SDS011;37512;52.408;13.356;2023-02-26T05:51:19;3.00;;;1.20;;
45762;SDS011;37512;52.408;13.356;2023-02-26T05:55:21;2.42;;;1.45;;
45762;SDS011;37512;52.408;13.356;2023-02-26T05:59:23;6.05;;;1.35;;
45762;SDS011;37512;52.408;13.356;2023-02-26T06:03:24;4.03;;;1.23;;
45762;SDS011;37512;52.408;13.356;2023-02-26T06:07:26;1.70;;;0.93;;
45762;SDS011;37512;52.408;13.356;2023-02-26T06:11:30;2.55;;;1.10;;
45762;SDS011;37512;52.408;13.356;2023-02-26T06:15:34;3.50;;;1.10;;
45762;SDS011;37512;52.408;13.356;2023-02-26T06:19:36;2.72;;;1.40;;
45762;SDS011;37512;52.408;13.356;2023-02-26T06:23:37;2.83;;;0.80;;
45762;SDS011;37512;52.408;13.356;2023-02-26T06:27:39;3.63;;;1.45;;
45762;SDS011;37512;52.408;13.356;2023-02-26T06:31:40;2.60;;;1.23;;
45762;SDS011;37512;52.408;13.356;2023-02-26T06:35:42;3.38;;;1.08;;
45762;SDS011;37512;52.408;13.356;2023-02-26T06:39:43;2.75;;;1.17;;
45762;SDS011;37512;52.408;13.356;2023-02-26T06:43:45;2.00;;;1.25;;
45762;SDS011;37512;52.408;13.356;2023-02-26T06:47:46;1.55;;;1.00;;
45762;SDS011;37512;52.408;13.356;2023-02-26T06:51:48;2.05;;;1.25;;
45762;SDS011;37512;52.408;13.356;2023-02-26T06:55:51;3.05;;;0.93;;
45762;SDS011;37512;52.408;13.356;2023-02-26T06:59:53;2.92;;;1.42;;
45762;SDS011;37512;52.408;13.356;2023-02-26T07:03:54;2.65;;;1.48;;
45762;SDS011;37512;52.408;13.356;2023-02-26T07:07:56;1.30;;;1.08;;
45762;SDS011;37512;52.408;13.356;2023-02-26T07:11:57;4.03;;;1.40;;
45762;SDS011;37512;52.408;13.356;2023-02-26T07:15:59;1.80;;;0.93;;
45762;SDS011;37512;52.408;13.356;2023-02-26T07:20:00;3.42;;;1.00;;
45762;SDS011;37512;52.408;13.356;2023-02-26T07:24:06;3.42;;;1.40;;
45762;SDS011;37512;52.408;13.356;2023-02-26T07:28:08;2.45;;;1.00;;
45762;SDS011;37512;52.408;13.356;2023-02-26T07:32:10;4.10;;;1.23;;
45762;SDS011;37512;52.408;13.356;2023-02-26T07:36:11;1.42;;;1.05;;
45762;SDS011;37512;52.408;13.356;2023-02-26T07:40:13;3.17;;;1.40;;
45762;SDS011;37512;52.408;13.356;2023-02-26T07:44:15;1.60;;;1.33;;
45762;SDS011;37512;52.408;13.356;2023-02-26T07:48:17;4.57;;;1.15;;
45762;SDS011;37512;52.408;13.356;2023-02-26T07:52:18;3.15;;;1.10;;
45762;SDS011;37512;52.408;13.356;2023-02-26T07:56:20;2.00;;;1.27;;
45762;SDS011;37512;52.408;13.356;2023-02-26T08:00:21;1.88;;;1.35;;
45762;SDS011;37512;52.408;13.356;2023-02-26T08:04:23;4.10;;;1.63;;
45762;SDS011;37512;52.408;13.356;2023-02-26T08:08:25;2.03;;;0.98;;
45762;SDS011;37512;52.408;13.356;2023-02-26T08:12:27;3.47;;;0.93;;
45762;SDS011;37512;52.408;13.356;2023-02-26T08:16:29;2.33;;;1.30;;
45762;SDS011;37512;52.408;13.356;2023-02-26T08:20:30;2.63;;;0.95;;
45762;SDS011;37512;52.408;13.356;2023-02-26T08:24:32;4.32;;;1.63;;
45762;SDS011;37512;52.408;13.356;2023-02-26T08:28:33;1.60;;;0.93;;
45762;SDS011;37512;52.408;13.356;2023-02-26T08:32:37;3.00;;;1.13;;
45762;SDS011;37512;52.408;13.356;2023-02-26T08:36:40;0.73;;;0.73;;
45762;SDS011;37512;52.408;13.356;2023-02-26T08:40:41;1.85;;;1.02;;
45762;SDS011;37512;52.408;13.356;2023-02-26T08:44:43;3.22;;;1.35;;
45762;SDS011;37512;52.408;13.356;2023-02-26T08:48:44;0.85;;;0.77;;
45762;SDS011;37512;52.408;13.356;2023-02-26T08:52:46;2.55;;;0.98;;
45762;SDS011;37512;52.408;13.356;2023-02-26T08:56:47;1.60;;;1.02;;
45762;SDS011;37512;52.408;13.356;2023-02-26T09:00:49;4.10;;;1.80;;
45762;SDS011;37512;52.408;13.356;2023-02-26T09:04:51;1.70;;;1.00;;
45762;SDS011;37512;52.408;13.356;2023-02-26T09:08:52;2.17;;;0.90;;
45762;SDS011;37512;52.408;13.356;2023-02-26T09:12:53;1.63;;;1.20;;
45762;SDS011;37512;52.408;13.356;2023-02-26T09:16:55;2.28;;;1.25;;
45762;SDS011;37512;52.408;13.356;2023-02-26T09:20:57;5.18;;;1.10;;
45762;SDS011;37512;52.408;13.356;2023-02-26T09:24:58;3.70;;;1.35;;
45762;SDS011;37512;52.408;13.356;2023-02-26T09:29:01;2.75;;;1.33;;
45762;SDS011;37512;52.408;13.356;2023-02-26T09:33:02;2.03;;;1.05;;
45762;SDS011;37512;52.408;13.356;2023-02-26T09:37:04;5.30;;;1.58;;
45762;SDS011;37512;52.408;13.356;2023-02-26T09:41:08;2.42;;;1.02;;
45762;SDS011;37512;52.408;13.356;2023-02-26T09:45:32;2.20;;;1.20;;
45762;SDS011;37512;52.408;13.356;2023-02-26T09:49:56;6.50;;;1.20;;
45762;SDS011;37512;52.408;13.356;2023-02-26T09:54:11;7.13;;;2.17;;
45762;SDS011;37512;52.408;13.356;2023-02-26T09:58:20;3.55;;;1.10;;
45762;SDS011;37512;52.408;13.356;2023-02-26T10:19:39;2.20;;;0.90;;
45762;SDS011;37512;52.408;13.356;2023-02-26T10:23:45;2.60;;;0.95;;
45762;SDS011;37512;52.408;13.356;2023-02-26T10:28:01;2.55;;;0.98;;
45762;SDS011;37512;52.408;13.356;2023-02-26T10:49:21;1.88;;;1.00;;
45762;SDS011;37512;52.408;13.356;2023-02-26T10:53:35;2.53;;;1.08;;
45762;SDS011;37512;52.408;13.356;2023-02-26T10:57:47;3.05;;;1.27;;
45762;SDS011;37512;52.408;13.356;2023-02-26T11:01:55;3.92;;;1.25;;
45762;SDS011;37512;52.408;13.356;2023-02-26T11:05:57;1.02;;;0.80;;
45762;SDS011;37512;52.408;13.356;2023-02-26T11:09:59;2.13;;;0.90;;
45762;SDS011;37512;52.408;13.356;2023-02-26T11:14:01;3.42;;;1.23;;
45762;SDS011;37512;52.408;13.356;2023-02-26T11:18:02;3.25;;;1.13;;
45762;SDS011;37512;52.408;13.356;2023-02-26T11:22:04;3.47;;;1.30;;
45762;SDS011;37512;52.408;13.356;2023-02-26T11:26:18;2.90;;;1.40;;
45762;SDS011;37512;52.408;13.356;2023-02-26T11:30:33;4.05;;;1.30;;
45762;SDS011;37512;52.408;13.356;2023-02-26T11:34:37;2.15;;;1.00;;
45762;SDS011;37512;52.408;13.356;2023-02-26T11:38:42;3.95;;;0.90;;
45762;SDS011;37512;52.408;13.356;2023-02-26T11:42:54;2.90;;;0.98;;
45762;SDS011;37512;52.408;13.356;2023-02-26T11:46:58;1.20;;;0.90;;
45762;SDS011;37512;52.408;13.356;2023-02-26T11:51:06;2.85;;;1.27;;
45762;SDS011;37512;52.408;13.356;2023-02-26T11:55:20;3.90;;;1.17;;
45762;SDS011;37512;52.408;13.356;2023-02-26T11:59:30;3.08;;;1.38;;
45762;SDS011;37512;52.408;13.356;2023-02-26T12:03:33;2.05;;;1.15;;
45762;SDS011;37512;52.408;13.356;2023-02-26T12:07:41;2.63;;;1.00;;
45762;SDS011;37512;52.408;13.356;2023-02-26T12:12:04;4.47;;;0.77;;
45762;SDS011;37512;52.408;13.356;2023-02-26T12:16:23;1.75;;;1.00;;
45762;SDS011;37512;52.408;13.356;2023-02-26T12:25:13;3.30;;;1.48;;
45762;SDS011;37512;52.408;13.356;2023-02-26T12:38:09;3.25;;;1.35;;
45762;SDS011;37512;52.408;13.356;2023-02-26T12:42:44;2.67;;;1.10;;
45762;SDS011;37512;52.408;13.356;2023-02-26T13:21:21;2.20;;;0.90;;
45762;SDS011;37512;52.408;13.356;2023-02-26T13:25:37;2.28;;;1.20;;
45762;SDS011;37512;52.408;13.356;2023-02-26T13:29:51;1.08;;;0.90;;
45762;SDS011;37512;52.408;13.356;2023-02-26T13:34:05;3.80;;;1.17;;
45762;SDS011;37512;52.408;13.356;2023-02-26T13:38:14;1.83;;;1.17;;
45762;SDS011;37512;52.408;13.356;2023-02-26T13:51:30;1.30;;;1.00;;
45762;SDS011;37512;52.408;13.356;2023-02-26T13:55:46;3.92;;;1.00;;
45762;SDS011;37512;52.408;13.356;2023-02-26T14:04:23;4.72;;;0.90;;
45762;SDS011;37512;52.408;13.356;2023-02-26T14:12:41;1.77;;;0.90;;
45762;SDS011;37512;52.408;13.356;2023-02-26T14:16:44;1.27;;;0.93;;
45762;SDS011;37512;52.408;13.356;2023-02-26T14:20:50;6.57;;;1.05;;
45762;SDS011;37512;52.408;13.356;2023-02-26T14:33:07;1.55;;;1.13;;
45762;SDS011;37512;52.408;13.356;2023-02-26T14:37:11;4.78;;;1.17;;
45762;SDS011;37512;52.408;13.356;2023-02-26T14:41:33;1.85;;;0.95;;
45762;SDS011;37512;52.408;13.356;2023-02-26T14:45:40;1.48;;;1.00;;
45762;SDS011;37512;52.408;13.356;2023-02-26T14:49:45;1.02;;;0.68;;
45762;SDS011;37512;52.408;13.356;2023-02-26T14:54:12;2.35;;;1.00;;
45762;SDS011;37512;52.408;13.356;2023-02-26T15:21:09;2.30;;;0.85;;
45762;SDS011;37512;52.408;13.356;2023-02-26T15:29:35;2.42;;;0.90;;
45762;SDS011;37512;52.408;13.356;2023-02-26T15:33:39;1.75;;;0.82;;
45762;SDS011;37512;52.408;13.356;2023-02-26T15:37:47;1.73;;;1.08;;
45762;SDS011;37512;52.408;13.356;2023-02-26T15:41:51;2.92;;;0.90;;
45762;SDS011;37512;52.408;13.356;2023-02-26T15:45:55;2.67;;;1.10;;
45762;SDS011;37512;52.408;13.356;2023-02-26T15:49:59;1.05;;;0.80;;
45762;SDS011;37512;52.408;13.356;2023-02-26T15:54:01;1.83;;;1.33;;
45762;SDS011;37512;52.408;13.356;2023-02-26T15:58:06;2.38;;;0.93;;
45762;SDS011;37512;52.408;13.356;2023-02-26T16:02:12;2.95;;;1.50;;
45762;SDS011;37512;52.408;13.356;2023-02-26T16:06:16;2.33;;;1.30;;
45762;SDS011;37512;52.408;13.356;2023-02-26T16:10:39;2.10;;;1.30;;
45762;SDS011;37512;52.408;13.356;2023-02-26T16:14:43;2.13;;;1.17;;
45762;SDS011;37512;52.408;13.356;2023-02-26T16:18:55;3.70;;;1.33;;
45762;SDS011;37512;52.408;13.356;2023-02-26T16:23:05;1.88;;;1.30;;
45762;SDS011;37512;52.408;13.356;2023-02-26T16:27:11;1.88;;;1.05;;
45762;SDS011;37512;52.408;13.356;2023-02-26T16:31:20;2.08;;;0.90;;
45762;SDS011;37512;52.408;13.356;2023-02-26T16:35:32;1.17;;;0.98;;
45762;SDS011;37512;52.408;13.356;2023-02-26T16:39:42;2.75;;;1.23;;
45762;SDS011;37512;52.408;13.356;2023-02-26T16:47:53;0.90;;;0.73;;
45762;SDS011;37512;52.408;13.356;2023-02-26T16:51:57;1.30;;;0.85;;
45762;SDS011;37512;52.408;13.356;2023-02-26T16:56:00;3.20;;;1.10;;
45762;SDS011;37512;52.408;13.356;2023-02-26T17:00:07;1.73;;;1.05;;
45762;SDS011;37512;52.408;13.356;2023-02-26T17:04:18;1.40;;;1.05;;
45762;SDS011;37512;52.408;13.356;2023-02-26T17:09:16;1.13;;;0.90;;
45762;SDS011;37512;52.408;13.356;2023-02-26T17:13:25;8.38;;;1.20;;
45762;SDS011;37512;52.408;13.356;2023-02-26T17:17:29;3.00;;;1.00;;
45762;SDS011;37512;52.408;13.356;2023-02-26T17:21:30;3.33;;;1.00;;
45762;SDS011;37512;52.408;13.356;2023-02-26T17:25:35;5.05;;;1.30;;
45762;SDS011;37512;52.408;13.356;2023-02-26T17:29:41;1.48;;;1.15;;
45762;SDS011;37512;52.408;13.356;2023-02-26T17:33:45;1.77;;;1.20;;
45762;SDS011;37512;52.408;13.356;2023-02-26T17:37:47;1.00;;;0.80;;
45762;SDS011;37512;52.408;13.356;2023-02-26T17:41:49;1.80;;;1.10;;
45762;SDS011;37512;52.408;13.356;2023-02-26T17:45:50;3.42;;;1.23;;
45762;SDS011;37512;52.408;13.356;2023-02-26T17:49:52;2.95;;;1.65;;
45762;SDS011;37512;52.408;13.356;2023-02-26T17:53:54;2.95;;;1.35;;
45762;SDS011;37512;52.408;13.356;2023-02-26T17:57:56;4.10;;;1.10;;
45762;SDS011;37512;52.408;13.356;2023-02-26T18:01:58;1.95;;;1.30;;
45762;SDS011;37512;52.408;13.356;2023-02-26T18:06:00;3.22;;;1.67;;
45762;SDS011;37512;52.408;13.356;2023-02-26T18:10:02;1.42;;;0.98;;
45762;SDS011;37512;52.408;13.356;2023-02-26T18:14:05;2.92;;;1.33;;
45762;SDS011;37512;52.408;13.356;2023-02-26T18:18:07;6.07;;;1.83;;
45762;SDS011;37512;52.408;13.356;2023-02-26T18:22:13;2.90;;;1.58;;
45762;SDS011;37512;52.408;13.356;2023-02-26T18:26:17;5.50;;;1.40;;
45762;SDS011;37512;52.408;13.356;2023-02-26T18:30:23;4.15;;;1.58;;
45762;SDS011;37512;52.408;13.356;2023-02-26T18:34:28;3.58;;;1.67;;
45762;SDS011;37512;52.408;13.356;2023-02-26T18:38:30;2.15;;;1.45;;
45762;SDS011;37512;52.408;13.356;2023-02-26T18:42:31;2.20;;;1.23;;
45762;SDS011;37512;52.408;13.356;2023-02-26T18:46:33;2.78;;;1.38;;
45762;SDS011;37512;52.408;13.356;2023-02-26T18:50:38;1.95;;;1.30;;
45762;SDS011;37512;52.408;13.356;2023-02-26T18:54:40;4.88;;;1.60;;
45762;SDS011;37512;52.408;13.356;2023-02-26T18:58:42;1.65;;;1.20;;
45762;SDS011;37512;52.408;13.356;2023-02-26T19:02:43;2.10;;;1.25;;
45762;SDS011;37512;52.408;13.356;2023-02-26T19:06:45;3.30;;;1.20;;
45762;SDS011;37512;52.408;13.356;2023-02-26T19:10:47;3.83;;;1.80;;
45762;SDS011;37512;52.408;13.356;2023-02-26T19:14:48;4.30;;;2.10;;
45762;SDS011;37512;52.408;13.356;2023-02-26T19:18:50;5.18;;;1.70;;
45762;SDS011;37512;52.408;13.356;2023-02-26T19:22:52;4.00;;;1.92;;
45762;SDS011;37512;52.408;13.356;2023-02-26T19:26:55;2.63;;;1.40;;
45762;SDS011;37512;52.408;13.356;2023-02-26T19:30:56;2.83;;;1.75;;
45762;SDS011;37512;52.408;13.356;2023-02-26T19:34:58;3.08;;;1.40;;
45762;SDS011;37512;52.408;13.356;2023-02-26T19:39:01;2.60;;;1.38;;
45762;SDS011;37512;52.408;13.356;2023-02-26T19:43:04;1.60;;;1.15;;
45762;SDS011;37512;52.408;13.356;2023-02-26T19:47:06;2.90;;;1.48;;
45762;SDS011;37512;52.408;13.356;2023-02-26T19:51:07;4.03;;;1.92;;
45762;SDS011;37512;52.408;13.356;2023-02-26T19:55:13;2.75;;;1.75;;
45762;SDS011;37512;52.408;13.356;2023-02-26T19:59:14;3.55;;;1.30;;
45762;SDS011;37512;52.408;13.356;2023-02-26T20:03:16;5.10;;;1.77;;
45762;SDS011;37512;52.408;13.356;2023-02-26T20:07:18;1.83;;;1.08;;
45762;SDS011;37512;52.408;13.356;2023-02-26T20:11:19;1.63;;;1.10;;
45762;SDS011;37512;52.408;13.356;2023-02-26T20:15:21;2.13;;;1.40;;
45762;SDS011;37512;52.408;13.356;2023-02-26T20:19:22;3.00;;;1.80;;
45762;SDS011;37512;52.408;13.356;2023-02-26T20:23:24;3.45;;;1.52;;
45762;SDS011;37512;52.408;13.356;2023-02-26T20:27:26;2.05;;;1.33;;
45762;SDS011;37512;52.408;13.356;2023-02-26T20:31:28;2.05;;;1.15;;
45762;SDS011;37512;52.408;13.356;2023-02-26T20:35:31;3.60;;;1.30;;
45762;SDS011;37512;52.408;13.356;2023-02-26T20:39:32;2.10;;;1.10;;
45762;SDS011;37512;52.408;13.356;2023-02-26T20:43:34;3.38;;;1.88;;
45762;SDS011;37512;52.408;13.356;2023-02-26T20:47:36;2.63;;;1.65;;
45762;SDS011;37512;52.408;13.356;2023-02-26T20:51:38;3.13;;;1.80;;
45762;SDS011;37512;52.408;13.356;2023-02-26T20:55:41;5.28;;;2.00;;
45762;SDS011;37512;52.408;13.356;2023-02-26T20:59:42;7.30;;;1.85;;
45762;SDS011;37512;52.408;13.356;2023-02-26T21:03:44;3.38;;;1.85;;
45762;SDS011;37512;52.408;13.356;2023-02-26T21:07:45;3.38;;;1.88;;
45762;SDS011;37512;52.408;13.356;2023-02-26T21:11:50;3.38;;;1.85;;
45762;SDS011;37512;52.408;13.356;2023-02-26T21:16:11;2.95;;;1.90;;
45762;SDS011;37512;52.408;13.356;2023-02-26T21:24:23;4.22;;;1.80;;
45762;SDS011;37512;52.408;13.356;2023-02-26T21:28:26;4.90;;;2.00;;
45762;SDS011;37512;52.408;13.356;2023-02-26T21:32:29;4.05;;;1.50;;
45762;SDS011;37512;52.408;13.356;2023-02-26T21:36:32;3.10;;;2.08;;
45762;SDS011;37512;52.408;13.356;2023-02-26T21:40:33;5.45;;;2.10;;
45762;SDS011;37512;52.408;13.356;2023-02-26T21:44:36;7.20;;;3.20;;
45762;SDS011;37512;52.408;13.356;2023-02-26T21:48:40;15.18;;;4.40;;
45762;SDS011;37512;52.408;13.356;2023-02-26T21:52:41;9.27;;;4.32;;
45762;SDS011;37512;52.408;13.356;2023-02-26T21:56:43;9.68;;;3.88;;
45762;SDS011;37512;52.408;13.356;2023-02-26T22:00:45;6.35;;;3.38;;
45762;SDS011;37512;52.408;13.356;2023-02-26T22:04:46;7.55;;;3.78;;
45762;SDS011;37512;52.408;13.356;2023-02-26T22:08:48;5.97;;;3.72;;
45762;SDS011;37512;52.408;13.356;2023-02-26T22:12:49;5.63;;;3.40;;
45762;SDS011;37512;52.408;13.356;2023-02-26T22:16:51;6.30;;;3.45;;
45762;SDS011;37512;52.408;13.356;2023-02-26T22:20:52;6.63;;;2.78;;
45762;SDS011;37512;52.408;13.356;2023-02-26T22:24:54;12.23;;;3.67;;
45762;SDS011;37512;52.408;13.356;2023-02-26T22:28:55;5.15;;;3.03;;
45762;SDS011;37512;52.408;13.356;2023-02-26T22:32:59;6.75;;;3.53;;
45762;SDS011;37512;52.408;13.356;2023-02-26T22:37:01;9.95;;;4.55;;
45762;SDS011;37512;52.408;13.356;2023-02-26T22:41:02;8.45;;;4.68;;
45762;SDS011;37512;52.408;13.356;2023-02-26T22:45:04;8.85;;;4.45;;
45762;SDS011;37512;52.408;13.356;2023-02-26T22:49:07;14.25;;;6.72;;
45762;SDS011;37512;52.408;13.356;2023-02-26T22:53:08;13.55;;;6.35;;
45762;SDS011;37512;52.408;13.356;2023-02-26T22:57:10;11.73;;;5.10;;
45762;SDS011;37512;52.408;13.356;2023-02-26T23:01:11;9.95;;;5.63;;
45762;SDS011;37512;52.408;13.356;2023-02-26T23:05:13;10.07;;;4.93;;
45762;SDS011;37512;52.408;13.356;2023-02-26T23:09:15;13.45;;;4.68;;
45762;SDS011;37512;52.408;13.356;2023-02-26T23:13:17;9.30;;;4.30;;
45762;SDS011;37512;52.408;13.356;2023-02-26T23:17:18;4.10;;;2.92;;
45762;SDS011;37512;52.408;13.356;2023-02-26T23:21:20;4.68;;;2.67;;
45762;SDS011;37512;52.408;13.356;2023-02-26T23:25:22;3.47;;;2.22;;
45762;SDS011;37512;52.408;13.356;2023-02-26T23:29:23;5.60;;;2.90;;
45762;SDS011;37512;52.408;13.356;2023-02-26T23:33:25;2.80;;;2.13;;
45762;SDS011;37512;52.408;13.356;2023-02-26T23:37:27;4.35;;;2.88;;
45762;SDS011;37512;52.408;13.356;2023-02-26T23:41:28;5.25;;;2.72;;
45762;SDS011;37512;52.408;13.356;2023-02-26T23:45:30;7.20;;;2.65;;
45762;SDS011;37512;52.408;13.356;2023-02-26T23:49:31;4.40;;;2.17;;
45762;SDS011;37512;52.408;13.356;2023-02-26T23:53:33;5.70;;;2.80;;
45762;SDS011;37512;52.408;13.356;2023-02-26T23:57:34;6.47;;;2.83;;
